createdAt,value
2022-12-15T00:00:48.616Z,7.65
2022-12-15T00:03:35.980Z,8.75
2022-12-15T00:06:23.771Z,9.45
2022-12-15T00:09:14.847Z,12.27
2022-12-15T00:12:02.448Z,10.63
2022-12-15T00:14:48.607Z,10.93
2022-12-15T00:17:35.735Z,13.23
2022-12-15T00:20:23.062Z,9.98
2022-12-15T00:23:10.395Z,14.00
2022-12-15T00:25:57.660Z,12.63
2022-12-15T00:28:44.932Z,11.40
2022-12-15T00:31:32.249Z,11.70
2022-12-15T00:34:19.309Z,9.60
2022-12-15T00:37:06.439Z,12.80
2022-12-15T00:39:35.057Z,13.05
2022-12-15T00:42:06.057Z,12.10
2022-12-15T00:44:34.906Z,13.38
2022-12-15T00:47:03.439Z,9.93
2022-12-15T00:49:51.714Z,11.70
2022-12-15T00:52:38.929Z,8.48
2022-12-15T00:55:26.279Z,10.75
2022-12-15T00:58:13.807Z,11.63
2022-12-15T01:01:00.465Z,11.68
2022-12-15T01:03:47.301Z,8.52
2022-12-15T01:06:37.414Z,8.90
2022-12-15T01:09:25.836Z,12.13
2022-12-15T01:12:13.033Z,11.05
2022-12-15T01:15:00.431Z,9.20
2022-12-15T01:17:47.725Z,8.60
2022-12-15T01:20:19.558Z,11.63
2022-12-15T01:22:54.248Z,10.55
2022-12-15T01:25:25.497Z,11.30
2022-12-15T01:27:54.297Z,9.63
2022-12-15T01:30:25.381Z,8.55
2022-12-15T01:32:54.577Z,13.82
2022-12-15T01:35:23.724Z,9.63
2022-12-15T01:37:52.584Z,9.50
2022-12-15T01:40:40.239Z,9.75
2022-12-15T01:43:35.916Z,15.00
2022-12-15T01:46:10.007Z,15.25
2022-12-15T01:48:42.894Z,13.95
2022-12-15T01:51:33.786Z,14.63
2022-12-15T01:54:11.899Z,12.38
2022-12-15T01:56:52.012Z,9.73
2022-12-15T01:59:31.700Z,11.82
2022-12-15T02:02:00.577Z,8.75
2022-12-15T02:04:29.345Z,8.75
2022-12-15T02:06:57.979Z,9.30
2022-12-15T02:09:28.658Z,8.75
2022-12-15T02:12:02.803Z,11.73
2022-12-15T02:15:00.381Z,10.18
2022-12-15T02:18:03.289Z,9.98
2022-12-15T02:20:44.165Z,7.35
2022-12-15T02:23:15.633Z,9.02
2022-12-15T02:25:54.324Z,16.67
2022-12-15T02:28:45.021Z,9.73
2022-12-15T02:31:52.633Z,13.48
2022-12-15T02:34:45.687Z,9.57
2022-12-15T02:37:20.881Z,9.73
2022-12-15T02:39:49.674Z,9.32
2022-12-15T02:42:18.539Z,14.75
2022-12-15T02:44:50.804Z,9.85
2022-12-15T02:47:28.188Z,9.05
2022-12-15T02:50:11.923Z,10.35
2022-12-15T02:53:17.240Z,8.57
2022-12-15T02:55:47.668Z,11.15
2022-12-15T02:58:25.271Z,8.02
2022-12-15T03:01:03.179Z,9.32
2022-12-15T03:03:33.802Z,10.55
2022-12-15T03:06:03.730Z,7.63
2022-12-15T03:08:32.435Z,7.50
2022-12-15T03:11:01.138Z,8.68
2022-12-15T03:13:30.143Z,9.93
2022-12-15T03:16:00.018Z,12.68
2022-12-15T03:18:28.744Z,10.80
2022-12-15T03:20:57.467Z,14.07
2022-12-15T03:23:26.126Z,9.82
2022-12-15T03:25:54.190Z,10.75
2022-12-15T03:28:22.962Z,9.18
2022-12-15T03:30:51.441Z,9.55
2022-12-15T03:33:21.608Z,11.93
2022-12-15T03:35:51.207Z,9.52
2022-12-15T03:38:20.426Z,11.77
2022-12-15T03:40:49.091Z,11.02
2022-12-15T03:43:17.794Z,10.30
2022-12-15T03:45:46.719Z,10.20
2022-12-15T03:48:15.114Z,11.57
2022-12-15T03:50:43.911Z,12.95
2022-12-15T03:53:12.332Z,13.20
2022-12-15T03:55:40.981Z,12.57
2022-12-15T03:58:09.717Z,9.30
2022-12-15T04:00:39.021Z,8.88
2022-12-15T04:03:07.814Z,9.77
2022-12-15T04:05:37.080Z,8.55
2022-12-15T04:08:06.329Z,12.50
2022-12-15T04:10:35.987Z,7.00
2022-12-15T04:13:10.280Z,7.53
2022-12-15T04:15:40.021Z,12.27
2022-12-15T04:18:11.649Z,12.70
2022-12-15T04:20:41.734Z,13.20
2022-12-15T04:23:10.563Z,10.13
2022-12-15T04:25:57.508Z,9.52
2022-12-15T04:28:44.216Z,9.98
2022-12-15T04:31:36.557Z,9.00
2022-12-15T04:34:25.617Z,11.07
2022-12-15T04:37:14.200Z,11.15
2022-12-15T04:40:04.437Z,10.15
2022-12-15T04:42:52.808Z,8.75
2022-12-15T04:45:42.782Z,10.35
2022-12-15T04:48:30.558Z,8.73
2022-12-15T04:51:17.859Z,7.50
2022-12-15T04:54:05.610Z,9.32
2022-12-15T04:56:52.952Z,8.23
2022-12-15T04:59:40.627Z,13.45
2022-12-15T05:02:27.402Z,9.82
2022-12-15T05:05:14.650Z,13.20
2022-12-15T05:08:01.360Z,11.38
2022-12-15T05:10:48.541Z,9.48
2022-12-15T05:13:35.889Z,12.80
2022-12-15T05:16:23.356Z,8.88
2022-12-15T05:19:10.410Z,12.15
2022-12-15T05:21:57.618Z,11.07
2022-12-15T05:24:44.382Z,6.70
2022-12-15T05:27:31.807Z,11.70
2022-12-15T05:30:19.125Z,10.07
2022-12-15T05:32:47.801Z,8.75
2022-12-15T05:35:18.642Z,11.98
2022-12-15T05:37:47.447Z,10.10
2022-12-15T05:40:16.141Z,12.98
2022-12-15T05:42:44.776Z,11.73
2022-12-15T05:45:18.732Z,12.57
2022-12-15T05:47:53.369Z,12.43
2022-12-15T05:50:22.781Z,9.00
2022-12-15T05:52:51.256Z,12.25
2022-12-15T05:55:20.446Z,15.05
2022-12-15T05:57:58.214Z,13.00
2022-12-15T06:00:27.054Z,10.30
2022-12-15T06:02:55.700Z,13.15
2022-12-15T06:05:24.488Z,10.63
2022-12-15T06:07:53.171Z,11.68
2022-12-15T06:10:22.005Z,13.65
2022-12-15T06:12:50.453Z,15.57
2022-12-15T06:15:19.088Z,10.70
2022-12-15T06:17:49.726Z,10.27
2022-12-15T06:20:18.635Z,8.73
2022-12-15T06:22:50.136Z,9.88
2022-12-15T06:25:19.273Z,7.72
2022-12-15T06:27:47.938Z,11.90
2022-12-15T06:30:17.539Z,8.23
2022-12-15T06:32:45.967Z,9.30
2022-12-15T06:35:18.571Z,8.88
2022-12-15T06:37:47.377Z,9.70
2022-12-15T06:40:16.080Z,11.73
2022-12-15T06:42:44.725Z,11.80
2022-12-15T06:45:13.428Z,9.63
2022-12-15T06:47:42.028Z,13.13
2022-12-15T06:50:11.177Z,7.80
2022-12-15T06:52:39.860Z,11.88
2022-12-15T06:55:08.835Z,11.57
2022-12-15T06:57:38.778Z,9.52
2022-12-15T07:00:08.183Z,11.93
2022-12-15T07:02:37.168Z,11.23
2022-12-15T07:05:07.119Z,10.05
2022-12-15T07:07:35.759Z,9.57
2022-12-15T07:10:04.471Z,9.00
2022-12-15T07:12:33.137Z,10.73
2022-12-15T07:15:01.740Z,9.25
2022-12-15T07:17:31.398Z,7.97
2022-12-15T07:19:59.805Z,10.85
2022-12-15T07:22:30.318Z,9.93
2022-12-15T07:24:59.426Z,10.13
2022-12-15T07:27:28.101Z,9.73
2022-12-15T07:29:56.760Z,9.27
2022-12-15T07:32:25.164Z,9.77
2022-12-15T07:34:53.837Z,7.45
2022-12-15T07:37:23.062Z,8.93
2022-12-15T07:39:51.694Z,10.55
2022-12-15T07:42:20.935Z,8.07
2022-12-15T07:44:49.958Z,10.90
2022-12-15T07:47:18.834Z,10.82
2022-12-15T07:49:50.682Z,7.78
2022-12-15T07:52:19.327Z,10.73
2022-12-15T07:54:48.208Z,8.45
2022-12-15T07:57:17.626Z,12.07
2022-12-15T07:59:46.231Z,10.32
2022-12-15T08:02:15.265Z,9.75
2022-12-15T08:04:43.587Z,11.63
2022-12-15T08:07:12.372Z,10.65
2022-12-15T08:09:40.968Z,12.10
2022-12-15T08:12:09.756Z,9.23
2022-12-15T08:14:38.283Z,10.88
2022-12-15T08:17:07.055Z,9.35
2022-12-15T08:19:35.634Z,8.55
2022-12-15T08:22:04.239Z,6.72
2022-12-15T08:24:32.678Z,7.38
2022-12-15T08:27:01.045Z,8.52
2022-12-15T08:29:50.715Z,11.02
2022-12-15T08:32:18.415Z,10.52
2022-12-15T08:34:48.979Z,10.93
2022-12-15T08:37:17.558Z,8.63
2022-12-15T08:39:45.915Z,6.90
2022-12-15T08:42:14.267Z,10.73
2022-12-15T08:44:42.878Z,10.00
2022-12-15T08:47:11.220Z,6.75
2022-12-15T08:49:39.815Z,5.88
2022-12-15T08:52:08.374Z,8.77
2022-12-15T08:54:37.021Z,9.05
2022-12-15T08:57:06.449Z,7.22
2022-12-15T08:59:35.003Z,8.65
2022-12-15T09:02:03.755Z,7.72
2022-12-15T09:04:33.200Z,7.50
2022-12-15T09:07:01.842Z,6.25
2022-12-15T09:09:30.567Z,6.28
2022-12-15T09:11:59.149Z,7.97
2022-12-15T09:14:29.611Z,8.00
2022-12-15T09:16:58.721Z,9.60
2022-12-15T09:19:27.436Z,9.90
2022-12-15T09:21:56.930Z,11.93
2022-12-15T09:24:34.411Z,6.93
2022-12-15T09:27:04.237Z,9.60
2022-12-15T09:29:33.120Z,9.70
2022-12-15T09:32:01.753Z,9.38
2022-12-15T09:34:30.416Z,10.27
2022-12-15T09:36:58.844Z,9.60
2022-12-15T09:39:27.512Z,7.88
2022-12-15T09:42:00.374Z,9.15
2022-12-15T09:44:31.098Z,7.07
2022-12-15T09:47:08.283Z,9.13
2022-12-15T09:49:54.912Z,8.52
2022-12-15T09:52:27.566Z,8.52
2022-12-15T09:54:56.438Z,9.13
2022-12-15T09:57:38.313Z,8.93
2022-12-15T10:00:26.749Z,8.80
2022-12-15T10:03:11.074Z,7.70
2022-12-15T10:06:19.838Z,6.88
2022-12-15T10:08:59.658Z,8.48
2022-12-15T10:12:14.011Z,7.03
2022-12-15T10:14:58.852Z,8.90
2022-12-15T10:17:48.371Z,9.15
2022-12-15T10:20:22.124Z,8.38
2022-12-15T10:22:50.684Z,7.40
2022-12-15T10:25:29.678Z,9.82
2022-12-15T10:28:15.643Z,7.40
2022-12-15T10:30:56.917Z,7.03
2022-12-15T10:33:28.377Z,10.23
2022-12-15T10:35:58.131Z,11.27
2022-12-15T10:38:39.068Z,9.57
2022-12-15T10:41:13.603Z,11.48
2022-12-15T10:43:44.180Z,8.32
2022-12-15T10:46:16.898Z,9.00
2022-12-15T10:48:48.714Z,7.68
2022-12-15T10:51:25.080Z,7.00
2022-12-15T10:53:56.287Z,6.82
2022-12-15T10:59:33.180Z,7.18
2022-12-15T11:05:17.437Z,10.43
2022-12-15T11:07:46.095Z,8.23
2022-12-15T11:10:24.759Z,8.00
2022-12-15T11:13:17.695Z,8.63
2022-12-15T11:15:55.003Z,11.00
2022-12-15T11:18:39.094Z,9.07
2022-12-15T11:23:58.617Z,8.07
2022-12-15T11:26:33.838Z,12.30
2022-12-15T11:29:08.528Z,8.93
2022-12-15T11:31:40.598Z,8.45
2022-12-15T11:34:24.446Z,7.72
2022-12-15T11:39:35.522Z,6.82
2022-12-15T11:42:13.404Z,7.35
2022-12-15T11:44:48.989Z,9.23
2022-12-15T11:47:44.439Z,10.00
2022-12-15T11:50:28.509Z,10.00
2022-12-15T11:53:20.678Z,11.93
2022-12-15T11:55:48.987Z,6.32
2022-12-15T11:58:57.086Z,10.45
2022-12-15T12:01:39.808Z,11.40
2022-12-15T12:04:29.927Z,12.38
2022-12-15T12:07:09.276Z,9.40
2022-12-15T12:09:53.684Z,10.80
2022-12-15T12:12:50.634Z,16.63
2022-12-15T12:15:47.548Z,11.27
2022-12-15T12:18:26.933Z,8.55
2022-12-15T12:21:11.040Z,9.13
2022-12-15T12:24:01.336Z,11.48
2022-12-15T12:27:02.396Z,13.35
2022-12-15T12:29:30.991Z,10.95
2022-12-15T12:32:06.439Z,15.18
2022-12-15T12:34:51.157Z,11.35
2022-12-15T12:37:30.493Z,11.05
2022-12-15T12:40:17.698Z,15.10
2022-12-15T12:42:55.769Z,12.48
2022-12-15T12:45:44.852Z,19.80
2022-12-15T12:48:35.131Z,18.23
2022-12-15T12:51:22.990Z,12.88
2022-12-15T12:53:52.454Z,19.52
2022-12-15T12:56:50.962Z,18.80
2022-12-15T12:59:31.800Z,29.77
2022-12-15T13:02:22.214Z,21.15
2022-12-15T13:05:07.805Z,22.33
2022-12-15T13:07:42.117Z,23.33
2022-12-15T13:10:10.499Z,22.45
2022-12-15T13:13:01.612Z,25.95
2022-12-15T13:15:33.061Z,22.38
2022-12-15T13:18:21.652Z,18.27
2022-12-15T13:20:52.607Z,17.00
2022-12-15T13:23:21.222Z,13.75
2022-12-15T13:25:56.573Z,16.33
2022-12-15T13:28:45.896Z,20.65
2022-12-15T13:31:21.599Z,16.65
2022-12-15T13:33:58.284Z,14.07
2022-12-15T13:36:39.818Z,20.13
2022-12-15T13:39:14.593Z,17.90
2022-12-15T13:42:07.385Z,13.68
2022-12-15T13:45:01.813Z,13.77
2022-12-15T13:47:32.061Z,13.00
2022-12-15T13:50:03.255Z,13.20
2022-12-15T13:53:16.567Z,12.85
2022-12-15T13:55:28.799Z,13.52
2022-12-15T13:58:02.364Z,13.65
2022-12-15T14:03:08.259Z,16.05
2022-12-15T14:05:37.915Z,14.30
2022-12-15T14:08:13.537Z,15.75
2022-12-15T14:10:56.383Z,9.30
2022-12-15T14:13:33.439Z,12.37
2022-12-15T14:16:21.299Z,15.55
2022-12-15T14:19:10.105Z,11.75
2022-12-15T14:21:38.735Z,11.00
2022-12-15T14:24:38.875Z,9.75
2022-12-15T14:27:08.383Z,12.68
2022-12-15T14:29:37.217Z,10.88
2022-12-15T14:32:06.402Z,9.48
2022-12-15T14:34:42.564Z,14.80
2022-12-15T14:37:20.320Z,9.90
2022-12-15T14:39:50.637Z,12.00
2022-12-15T14:42:29.906Z,8.30
2022-12-15T14:44:59.128Z,12.50
2022-12-15T14:47:33.047Z,10.98
2022-12-15T14:50:04.217Z,9.45
2022-12-15T14:52:40.304Z,9.65
2022-12-15T14:55:45.427Z,9.02
2022-12-15T14:58:37.358Z,8.40
2022-12-15T15:01:22.164Z,12.57
2022-12-15T15:03:04.592Z,8.65
2022-12-15T15:03:06.811Z,6.90
2022-12-15T15:03:59.416Z,12.13
2022-12-15T15:06:41.857Z,9.77
2022-12-15T15:09:21.313Z,9.00
2022-12-15T15:11:51.838Z,10.55
2022-12-15T15:14:29.365Z,10.68
2022-12-15T15:17:07.182Z,14.95
2022-12-15T15:19:39.719Z,11.20
2022-12-15T15:22:23.157Z,10.93
2022-12-15T15:24:53.811Z,13.20
2022-12-15T15:27:41.239Z,10.25
2022-12-15T15:30:17.628Z,13.88
2022-12-15T15:33:00.492Z,14.70
2022-12-15T15:35:32.828Z,9.70
2022-12-15T15:38:06.906Z,10.18
2022-12-15T15:40:35.488Z,12.05
2022-12-15T15:43:09.283Z,12.90
2022-12-15T15:45:37.939Z,11.13
2022-12-15T15:48:06.842Z,7.60
2022-12-15T15:50:35.266Z,13.95
2022-12-15T15:53:03.678Z,9.07
2022-12-15T15:55:39.406Z,9.75
2022-12-15T15:58:15.398Z,12.63
2022-12-15T16:00:44.150Z,9.65
2022-12-15T16:03:12.349Z,11.00
2022-12-15T16:05:42.481Z,8.32
2022-12-15T16:08:23.103Z,7.25
2022-12-15T16:10:51.895Z,10.75
2022-12-15T16:13:26.017Z,7.93
2022-12-15T16:15:55.361Z,9.75
2022-12-15T16:18:23.993Z,14.25
2022-12-15T16:20:53.660Z,8.65
2022-12-15T16:23:25.402Z,9.55
2022-12-15T16:25:59.853Z,9.98
2022-12-15T16:28:31.030Z,8.70
2022-12-15T16:31:00.165Z,7.55
2022-12-15T16:33:28.980Z,8.10
2022-12-15T16:35:57.589Z,9.23
2022-12-15T16:38:33.825Z,9.88
2022-12-15T16:41:08.257Z,12.32
2022-12-15T16:43:40.400Z,10.27
2022-12-15T16:46:16.768Z,7.93
2022-12-15T16:48:45.270Z,7.68
2022-12-15T16:51:40.730Z,7.30
2022-12-15T16:54:11.465Z,9.57
2022-12-15T16:56:40.596Z,7.07
2022-12-15T16:59:34.578Z,10.23
2022-12-15T17:02:17.423Z,6.68
2022-12-15T17:04:46.064Z,7.07
2022-12-15T17:07:20.083Z,6.57
2022-12-15T17:09:51.418Z,7.50
2022-12-15T17:12:20.523Z,7.47
2022-12-15T17:14:49.409Z,10.48
2022-12-15T17:17:20.314Z,8.23
2022-12-15T17:20:32.691Z,8.00
2022-12-15T17:22:39.606Z,10.13
2022-12-15T17:25:10.327Z,6.25
2022-12-15T17:27:38.937Z,6.82
2022-12-15T17:30:09.516Z,9.13
2022-12-15T17:32:38.032Z,10.93
2022-12-15T17:35:07.111Z,7.88
2022-12-15T17:37:35.967Z,8.32
2022-12-15T17:40:06.237Z,8.20
2022-12-15T17:42:34.764Z,9.02
2022-12-15T17:45:03.217Z,10.38
2022-12-15T17:47:32.025Z,7.82
2022-12-15T17:50:00.715Z,7.88
2022-12-15T17:52:31.295Z,8.30
2022-12-15T17:55:00.079Z,7.57
2022-12-15T17:57:32.876Z,8.02
2022-12-15T18:00:03.113Z,10.15
2022-12-15T18:02:32.115Z,10.35
2022-12-15T18:05:00.681Z,6.97
2022-12-15T18:07:29.263Z,7.57
2022-12-15T18:09:57.881Z,9.43
2022-12-15T18:12:28.061Z,6.20
2022-12-15T18:14:56.941Z,10.38
2022-12-15T18:17:25.617Z,7.57
2022-12-15T18:19:54.228Z,10.07
2022-12-15T18:22:24.856Z,7.28
2022-12-15T18:24:55.097Z,6.82
2022-12-15T18:27:27.145Z,8.45
2022-12-15T18:29:56.257Z,9.23
2022-12-15T18:32:26.940Z,10.77
2022-12-15T18:34:56.380Z,7.20
2022-12-15T18:37:29.444Z,5.68
2022-12-15T18:40:04.252Z,6.75
2022-12-15T18:42:33.593Z,10.60
2022-12-15T18:45:03.631Z,7.13
2022-12-15T18:47:32.207Z,8.40
2022-12-15T18:50:00.946Z,8.00
2022-12-15T18:52:34.467Z,6.28
2022-12-15T18:55:03.652Z,7.00
2022-12-15T18:57:40.418Z,8.05
2022-12-15T19:00:11.449Z,5.18
2022-12-15T19:02:40.142Z,7.90
2022-12-15T19:05:26.553Z,6.47
2022-12-15T19:08:12.074Z,8.90
2022-12-15T19:11:00.091Z,9.98
2022-12-15T19:13:32.851Z,6.68
2022-12-15T19:16:03.027Z,6.40
2022-12-15T19:18:50.222Z,9.65
2022-12-15T19:21:41.981Z,6.43
2022-12-15T19:24:49.403Z,8.00
2022-12-15T19:27:21.467Z,5.97
2022-12-15T19:29:50.483Z,7.50
2022-12-15T19:32:19.104Z,6.97
2022-12-15T19:34:47.862Z,8.02
2022-12-15T19:37:23.932Z,7.40
2022-12-15T19:39:52.976Z,6.55
2022-12-15T19:42:34.515Z,6.05
2022-12-15T19:45:03.960Z,8.48
2022-12-15T19:47:32.559Z,8.00
2022-12-15T19:50:01.169Z,7.25
2022-12-15T19:52:30.015Z,9.35
2022-12-15T19:54:58.609Z,8.30
2022-12-15T19:57:27.543Z,8.18
2022-12-15T19:59:56.959Z,10.07
2022-12-15T20:02:25.687Z,11.65
2022-12-15T20:04:54.139Z,8.30
2022-12-15T20:07:31.677Z,6.68
2022-12-15T20:10:00.344Z,6.45
2022-12-15T20:12:29.041Z,6.82
2022-12-15T20:14:57.630Z,7.55
2022-12-15T20:17:25.997Z,7.20
2022-12-15T20:19:54.010Z,8.02
2022-12-15T20:22:22.613Z,8.02
2022-12-15T20:24:51.537Z,7.88
2022-12-15T20:27:21.145Z,8.48
2022-12-15T20:29:49.720Z,6.82
2022-12-15T20:32:21.276Z,11.60
2022-12-15T20:34:50.035Z,7.22
2022-12-15T20:37:25.242Z,9.45
2022-12-15T20:39:57.353Z,5.88
2022-12-15T20:42:26.614Z,5.97
2022-12-15T20:44:55.212Z,10.35
2022-12-15T20:47:27.940Z,8.75
2022-12-15T20:49:57.199Z,6.17
2022-12-15T20:52:27.897Z,6.82
2022-12-15T20:54:56.806Z,6.93
2022-12-15T20:57:25.831Z,7.28
2022-12-15T20:59:54.450Z,7.00
2022-12-15T21:02:24.564Z,6.70
2022-12-15T21:04:53.461Z,6.88
2022-12-15T21:07:22.203Z,6.20
2022-12-15T21:09:50.783Z,6.15
2022-12-15T21:12:19.961Z,4.82
2022-12-15T21:14:49.392Z,7.32
2022-12-15T21:17:19.510Z,5.95
2022-12-15T21:19:48.393Z,5.47
2022-12-15T21:22:28.400Z,5.88
2022-12-15T21:24:59.506Z,4.95
2022-12-15T21:27:28.176Z,6.25
2022-12-15T21:29:56.909Z,4.97
2022-12-15T21:32:25.471Z,4.57
2022-12-15T21:34:54.080Z,6.60
2022-12-15T21:37:29.059Z,5.47
2022-12-15T21:39:57.443Z,7.53
2022-12-15T21:42:26.356Z,4.20
2022-12-15T21:44:54.989Z,8.30
2022-12-15T21:47:50.219Z,6.00
2022-12-15T21:50:21.668Z,4.75
2022-12-15T21:52:50.413Z,5.10
2022-12-15T21:55:22.714Z,4.85
2022-12-15T21:57:51.693Z,5.65
2022-12-15T22:00:21.287Z,6.47
2022-12-15T22:02:51.899Z,4.13
2022-12-15T22:05:33.723Z,5.93
2022-12-15T22:08:12.556Z,6.20
2022-12-15T22:10:40.529Z,8.35
2022-12-15T22:13:13.908Z,7.05
2022-12-15T22:15:42.560Z,5.57
2022-12-15T22:18:20.884Z,5.63
2022-12-15T22:20:51.130Z,6.70
2022-12-15T22:23:20.533Z,6.05
2022-12-15T22:25:52.596Z,5.88
2022-12-15T22:28:26.452Z,9.15
2022-12-15T22:30:58.258Z,7.07
2022-12-15T22:33:28.062Z,5.72
2022-12-15T22:35:57.817Z,5.75
2022-12-15T22:38:26.920Z,6.13
2022-12-15T22:40:57.975Z,4.00
2022-12-15T22:43:38.571Z,4.07
2022-12-15T22:46:09.417Z,4.80
2022-12-15T22:48:41.889Z,3.85
2022-12-15T22:51:15.353Z,4.55
2022-12-15T22:53:44.149Z,3.17
2022-12-15T22:56:32.494Z,3.88
2022-12-15T22:59:04.395Z,4.30
2022-12-15T23:01:33.365Z,6.28
2022-12-15T23:04:01.737Z,4.00
2022-12-15T23:06:30.544Z,4.30
2022-12-15T23:08:59.158Z,4.05
2022-12-15T23:11:39.828Z,5.53
2022-12-15T23:14:19.224Z,6.88
2022-12-15T23:16:48.172Z,4.57
2022-12-15T23:19:25.040Z,5.30
2022-12-15T23:21:53.678Z,4.53
2022-12-15T23:24:22.333Z,4.88
2022-12-15T23:26:50.741Z,3.78
2022-12-15T23:29:20.568Z,4.95
2022-12-15T23:31:49.238Z,4.63
2022-12-15T23:34:17.881Z,6.13
2022-12-15T23:36:46.560Z,4.75
2022-12-15T23:39:15.191Z,6.90
2022-12-15T23:41:43.830Z,7.10
2022-12-15T23:44:13.548Z,11.93
2022-12-15T23:46:42.159Z,5.13
2022-12-15T23:49:11.119Z,4.13
2022-12-15T23:51:39.674Z,4.70
2022-12-15T23:54:08.467Z,7.18
2022-12-15T23:56:37.116Z,5.20
2022-12-15T23:59:05.839Z,7.35
